sensor_id;sensor_type;location;lat;lon;timestamp;temperature;humidity
44863;DHT22;30597;49.628;10.850;2022-07-29T00:00:12;26.60;40.60
44863;DHT22;30597;49.628;10.850;2022-07-29T00:02:37;26.60;40.70
44863;DHT22;30597;49.628;10.850;2022-07-29T00:05:04;26.60;40.60
44863;DHT22;30597;49.628;10.850;2022-07-29T00:07:29;26.60;40.70
44863;DHT22;30597;49.628;10.850;2022-07-29T00:09:55;26.50;40.80
44863;DHT22;30597;49.628;10.850;2022-07-29T00:12:22;26.60;40.70
44863;DHT22;30597;49.628;10.850;2022-07-29T00:14:48;26.50;40.60
44863;DHT22;30597;49.628;10.850;2022-07-29T00:17:14;26.60;40.70
44863;DHT22;30597;49.628;10.850;2022-07-29T00:19:39;26.60;40.70
44863;DHT22;30597;49.628;10.850;2022-07-29T00:22:05;26.50;40.50
44863;DHT22;30597;49.628;10.850;2022-07-29T00:24:30;26.60;40.70
44863;DHT22;30597;49.628;10.850;2022-07-29T00:26:56;26.60;40.70
44863;DHT22;30597;49.628;10.850;2022-07-29T00:29:21;26.60;40.70
44863;DHT22;30597;49.628;10.850;2022-07-29T00:31:47;26.60;40.70
44863;DHT22;30597;49.628;10.850;2022-07-29T00:34:13;26.60;40.80
44863;DHT22;30597;49.628;10.850;2022-07-29T00:36:57;26.60;40.80
44863;DHT22;30597;49.628;10.850;2022-07-29T00:39:23;26.50;40.70
44863;DHT22;30597;49.628;10.850;2022-07-29T00:41:49;26.50;40.90
44863;DHT22;30597;49.628;10.850;2022-07-29T00:44:16;26.50;40.80
44863;DHT22;30597;49.628;10.850;2022-07-29T00:46:41;26.50;40.70
44863;DHT22;30597;49.628;10.850;2022-07-29T00:49:07;26.50;40.80
44863;DHT22;30597;49.628;10.850;2022-07-29T00:51:35;26.50;40.80
44863;DHT22;30597;49.628;10.850;2022-07-29T00:54:02;26.50;40.80
44863;DHT22;30597;49.628;10.850;2022-07-29T00:56:30;26.50;40.90
44863;DHT22;30597;49.628;10.850;2022-07-29T00:58:57;26.50;40.90
44863;DHT22;30597;49.628;10.850;2022-07-29T01:01:23;26.50;40.90
44863;DHT22;30597;49.628;10.850;2022-07-29T01:03:48;26.50;40.80
44863;DHT22;30597;49.628;10.850;2022-07-29T01:06:16;26.50;40.90
44863;DHT22;30597;49.628;10.850;2022-07-29T01:08:42;26.50;40.90
44863;DHT22;30597;49.628;10.850;2022-07-29T01:11:08;26.50;40.90
44863;DHT22;30597;49.628;10.850;2022-07-29T01:13:34;26.50;40.90
44863;DHT22;30597;49.628;10.850;2022-07-29T01:16:18;26.50;40.90
44863;DHT22;30597;49.628;10.850;2022-07-29T01:18:47;26.50;41.00
44863;DHT22;30597;49.628;10.850;2022-07-29T01:21:43;26.50;40.90
44863;DHT22;30597;49.628;10.850;2022-07-29T01:29:55;26.40;41.00
44863;DHT22;30597;49.628;10.850;2022-07-29T01:32:26;26.50;41.10
44863;DHT22;30597;49.628;10.850;2022-07-29T01:39:58;26.40;41.10
44863;DHT22;30597;49.628;10.850;2022-07-29T01:42:35;26.40;41.00
44863;DHT22;30597;49.628;10.850;2022-07-29T01:45:14;26.50;41.10
44863;DHT22;30597;49.628;10.850;2022-07-29T01:47:46;26.50;41.10
44863;DHT22;30597;49.628;10.850;2022-07-29T01:50:20;26.50;41.10
44863;DHT22;30597;49.628;10.850;2022-07-29T01:52:52;26.50;41.10
44863;DHT22;30597;49.628;10.850;2022-07-29T01:55:20;26.50;41.10
44863;DHT22;30597;49.628;10.850;2022-07-29T01:57:48;26.40;41.00
44863;DHT22;30597;49.628;10.850;2022-07-29T02:00:15;26.40;41.00
44863;DHT22;30597;49.628;10.850;2022-07-29T02:02:43;26.50;41.10
44863;DHT22;30597;49.628;10.850;2022-07-29T02:05:12;26.40;41.00
44863;DHT22;30597;49.628;10.850;2022-07-29T02:07:40;26.50;41.10
44863;DHT22;30597;49.628;10.850;2022-07-29T02:10:07;26.40;41.00
44863;DHT22;30597;49.628;10.850;2022-07-29T02:12:35;26.40;41.00
44863;DHT22;30597;49.628;10.850;2022-07-29T02:15:03;26.40;41.00
44863;DHT22;30597;49.628;10.850;2022-07-29T02:17:38;26.50;41.10
44863;DHT22;30597;49.628;10.850;2022-07-29T02:20:05;26.50;41.00
44863;DHT22;30597;49.628;10.850;2022-07-29T02:22:35;26.40;41.00
44863;DHT22;30597;49.628;10.850;2022-07-29T02:25:02;26.40;41.00
44863;DHT22;30597;49.628;10.850;2022-07-29T02:27:29;26.40;40.90
44863;DHT22;30597;49.628;10.850;2022-07-29T02:29:57;26.40;41.00
44863;DHT22;30597;49.628;10.850;2022-07-29T02:32:24;26.40;41.00
44863;DHT22;30597;49.628;10.850;2022-07-29T02:34:51;26.40;41.00
44863;DHT22;30597;49.628;10.850;2022-07-29T02:37:17;26.40;41.00
44863;DHT22;30597;49.628;10.850;2022-07-29T02:39:44;26.40;41.00
44863;DHT22;30597;49.628;10.850;2022-07-29T02:42:13;26.40;41.00
44863;DHT22;30597;49.628;10.850;2022-07-29T02:44:40;26.40;41.00
44863;DHT22;30597;49.628;10.850;2022-07-29T02:47:18;26.40;41.00
44863;DHT22;30597;49.628;10.850;2022-07-29T02:50:06;26.40;41.10
44863;DHT22;30597;49.628;10.850;2022-07-29T02:52:43;26.40;41.10
44863;DHT22;30597;49.628;10.850;2022-07-29T02:55:57;26.40;41.20
44863;DHT22;30597;49.628;10.850;2022-07-29T02:58:41;26.30;41.10
44863;DHT22;30597;49.628;10.850;2022-07-29T03:01:12;26.30;41.10
44863;DHT22;30597;49.628;10.850;2022-07-29T03:03:40;26.30;41.20
44863;DHT22;30597;49.628;10.850;2022-07-29T03:06:08;26.30;41.20
44863;DHT22;30597;49.628;10.850;2022-07-29T03:08:34;26.40;41.30
44863;DHT22;30597;49.628;10.850;2022-07-29T03:11:01;26.30;41.20
44863;DHT22;30597;49.628;10.850;2022-07-29T03:13:27;26.30;41.20
44863;DHT22;30597;49.628;10.850;2022-07-29T03:15:55;26.30;41.20
44863;DHT22;30597;49.628;10.850;2022-07-29T03:18:21;26.30;41.20
44863;DHT22;30597;49.628;10.850;2022-07-29T03:20:47;26.30;41.20
44863;DHT22;30597;49.628;10.850;2022-07-29T03:23:19;26.30;41.20
44863;DHT22;30597;49.628;10.850;2022-07-29T03:25:45;26.30;41.30
44863;DHT22;30597;49.628;10.850;2022-07-29T03:28:11;26.30;41.30
44863;DHT22;30597;49.628;10.850;2022-07-29T03:30:36;26.30;41.20
44863;DHT22;30597;49.628;10.850;2022-07-29T03:33:02;26.30;41.30
44863;DHT22;30597;49.628;10.850;2022-07-29T03:35:27;26.20;41.30
44863;DHT22;30597;49.628;10.850;2022-07-29T03:37:53;26.20;41.30
44863;DHT22;30597;49.628;10.850;2022-07-29T03:40:35;26.30;41.40
44863;DHT22;30597;49.628;10.850;2022-07-29T03:43:02;26.20;41.40
44863;DHT22;30597;49.628;10.850;2022-07-29T03:45:29;26.20;41.40
44863;DHT22;30597;49.628;10.850;2022-07-29T03:48:00;26.20;41.40
44863;DHT22;30597;49.628;10.850;2022-07-29T03:50:28;26.20;41.40
44863;DHT22;30597;49.628;10.850;2022-07-29T03:52:54;26.20;41.40
44863;DHT22;30597;49.628;10.850;2022-07-29T03:55:20;26.20;41.50
44863;DHT22;30597;49.628;10.850;2022-07-29T03:57:46;26.20;41.50
44863;DHT22;30597;49.628;10.850;2022-07-29T04:00:13;26.20;41.50
44863;DHT22;30597;49.628;10.850;2022-07-29T04:02:41;26.20;41.50
44863;DHT22;30597;49.628;10.850;2022-07-29T04:05:14;26.10;41.50
44863;DHT22;30597;49.628;10.850;2022-07-29T04:07:43;26.10;41.50
44863;DHT22;30597;49.628;10.850;2022-07-29T04:10:08;26.10;41.50
44863;DHT22;30597;49.628;10.850;2022-07-29T04:12:34;26.10;41.50
44863;DHT22;30597;49.628;10.850;2022-07-29T04:15:01;26.10;41.50
44863;DHT22;30597;49.628;10.850;2022-07-29T04:17:26;26.10;41.50
44863;DHT22;30597;49.628;10.850;2022-07-29T04:19:52;26.10;41.60
44863;DHT22;30597;49.628;10.850;2022-07-29T04:22:18;26.10;41.60
44863;DHT22;30597;49.628;10.850;2022-07-29T04:24:43;26.10;41.50
44863;DHT22;30597;49.628;10.850;2022-07-29T04:27:09;26.10;41.60
44863;DHT22;30597;49.628;10.850;2022-07-29T04:29:34;26.10;41.60
44863;DHT22;30597;49.628;10.850;2022-07-29T04:32:00;26.10;41.60
44863;DHT22;30597;49.628;10.850;2022-07-29T04:34:25;26.10;41.60
44863;DHT22;30597;49.628;10.850;2022-07-29T04:36:51;26.10;41.60
44863;DHT22;30597;49.628;10.850;2022-07-29T04:39:16;26.10;41.60
44863;DHT22;30597;49.628;10.850;2022-07-29T04:41:43;26.10;41.70
44863;DHT22;30597;49.628;10.850;2022-07-29T04:44:09;26.10;41.60
44863;DHT22;30597;49.628;10.850;2022-07-29T04:46:35;26.10;41.60
44863;DHT22;30597;49.628;10.850;2022-07-29T04:49:01;26.10;41.70
44863;DHT22;30597;49.628;10.850;2022-07-29T04:51:27;26.10;41.70
44863;DHT22;30597;49.628;10.850;2022-07-29T04:53:53;26.10;41.60
44863;DHT22;30597;49.628;10.850;2022-07-29T04:56:18;26.10;41.60
44863;DHT22;30597;49.628;10.850;2022-07-29T04:58:44;26.10;41.60
44863;DHT22;30597;49.628;10.850;2022-07-29T05:01:09;26.10;41.60
44863;DHT22;30597;49.628;10.850;2022-07-29T05:03:35;26.10;41.60
44863;DHT22;30597;49.628;10.850;2022-07-29T05:06:00;26.10;41.50
44863;DHT22;30597;49.628;10.850;2022-07-29T05:08:26;26.10;41.50
44863;DHT22;30597;49.628;10.850;2022-07-29T05:10:51;26.10;41.50
44863;DHT22;30597;49.628;10.850;2022-07-29T05:13:17;26.10;41.50
44863;DHT22;30597;49.628;10.850;2022-07-29T05:15:43;26.20;41.50
44863;DHT22;30597;49.628;10.850;2022-07-29T05:18:08;26.10;41.50
44863;DHT22;30597;49.628;10.850;2022-07-29T05:20:34;26.10;42.10
44863;DHT22;30597;49.628;10.850;2022-07-29T05:23:02;26.10;41.40
44863;DHT22;30597;49.628;10.850;2022-07-29T05:25:28;26.10;41.50
44863;DHT22;30597;49.628;10.850;2022-07-29T05:27:55;26.20;41.50
44863;DHT22;30597;49.628;10.850;2022-07-29T05:30:21;26.20;41.50
44863;DHT22;30597;49.628;10.850;2022-07-29T05:32:47;26.20;41.50
44863;DHT22;30597;49.628;10.850;2022-07-29T05:35:13;26.20;41.40
44863;DHT22;30597;49.628;10.850;2022-07-29T05:37:39;26.20;41.50
44863;DHT22;30597;49.628;10.850;2022-07-29T05:40:05;26.30;41.40
44863;DHT22;30597;49.628;10.850;2022-07-29T05:42:31;26.20;41.40
44863;DHT22;30597;49.628;10.850;2022-07-29T05:44:57;26.20;41.30
44863;DHT22;30597;49.628;10.850;2022-07-29T05:47:23;26.20;41.30
44863;DHT22;30597;49.628;10.850;2022-07-29T05:49:48;26.20;41.30
44863;DHT22;30597;49.628;10.850;2022-07-29T05:52:14;26.20;41.20
44863;DHT22;30597;49.628;10.850;2022-07-29T05:54:40;26.30;42.00
44863;DHT22;30597;49.628;10.850;2022-07-29T05:57:06;26.30;41.30
44863;DHT22;30597;49.628;10.850;2022-07-29T05:59:35;26.30;41.20
44863;DHT22;30597;49.628;10.850;2022-07-29T06:02:01;26.30;41.20
44863;DHT22;30597;49.628;10.850;2022-07-29T06:04:27;26.30;41.20
44863;DHT22;30597;49.628;10.850;2022-07-29T06:06:52;26.30;41.10
44863;DHT22;30597;49.628;10.850;2022-07-29T06:09:18;26.30;41.10
44863;DHT22;30597;49.628;10.850;2022-07-29T06:11:44;26.40;41.20
44863;DHT22;30597;49.628;10.850;2022-07-29T06:14:09;26.30;41.10
44863;DHT22;30597;49.628;10.850;2022-07-29T06:16:35;26.40;41.00
44863;DHT22;30597;49.628;10.850;2022-07-29T06:19:00;26.40;41.00
44863;DHT22;30597;49.628;10.850;2022-07-29T06:21:26;26.40;41.10
44863;DHT22;30597;49.628;10.850;2022-07-29T06:23:52;26.40;41.00
44863;DHT22;30597;49.628;10.850;2022-07-29T06:26:17;26.40;41.00
44863;DHT22;30597;49.628;10.850;2022-07-29T06:28:43;26.40;40.90
44863;DHT22;30597;49.628;10.850;2022-07-29T06:31:08;26.50;40.90
44863;DHT22;30597;49.628;10.850;2022-07-29T06:33:34;26.40;40.80
44863;DHT22;30597;49.628;10.850;2022-07-29T06:35:59;26.40;40.80
44863;DHT22;30597;49.628;10.850;2022-07-29T06:38:25;26.40;40.80
44863;DHT22;30597;49.628;10.850;2022-07-29T06:40:51;26.50;40.90
44863;DHT22;30597;49.628;10.850;2022-07-29T06:43:34;26.50;40.90
44863;DHT22;30597;49.628;10.850;2022-07-29T06:46:04;26.50;40.80
44863;DHT22;30597;49.628;10.850;2022-07-29T06:48:31;26.50;40.80
44863;DHT22;30597;49.628;10.850;2022-07-29T06:50:57;26.50;40.80
44863;DHT22;30597;49.628;10.850;2022-07-29T06:53:23;26.50;40.70
44863;DHT22;30597;49.628;10.850;2022-07-29T06:55:48;26.50;40.70
44863;DHT22;30597;49.628;10.850;2022-07-29T06:58:14;26.50;40.60
44863;DHT22;30597;49.628;10.850;2022-07-29T07:00:43;26.50;40.60
44863;DHT22;30597;49.628;10.850;2022-07-29T07:03:09;26.50;40.50
44863;DHT22;30597;49.628;10.850;2022-07-29T07:05:35;26.50;40.50
44863;DHT22;30597;49.628;10.850;2022-07-29T07:08:00;26.60;40.50
44863;DHT22;30597;49.628;10.850;2022-07-29T07:10:26;26.60;40.50
44863;DHT22;30597;49.628;10.850;2022-07-29T07:12:52;26.60;40.50
44863;DHT22;30597;49.628;10.850;2022-07-29T07:15:18;26.70;40.50
44863;DHT22;30597;49.628;10.850;2022-07-29T07:17:47;26.70;40.40
44863;DHT22;30597;49.628;10.850;2022-07-29T07:20:14;26.70;40.40
44863;DHT22;30597;49.628;10.850;2022-07-29T07:22:39;26.60;40.30
44863;DHT22;30597;49.628;10.850;2022-07-29T07:25:05;26.70;40.30
44863;DHT22;30597;49.628;10.850;2022-07-29T07:27:31;26.70;40.30
44863;DHT22;30597;49.628;10.850;2022-07-29T07:29:57;26.70;40.20
44863;DHT22;30597;49.628;10.850;2022-07-29T07:32:22;26.70;40.30
44863;DHT22;30597;49.628;10.850;2022-07-29T07:34:48;26.70;40.20
44863;DHT22;30597;49.628;10.850;2022-07-29T07:37:13;26.70;40.20
44863;DHT22;30597;49.628;10.850;2022-07-29T07:39:40;26.70;40.30
44863;DHT22;30597;49.628;10.850;2022-07-29T07:42:06;26.70;40.30
44863;DHT22;30597;49.628;10.850;2022-07-29T07:44:32;26.70;40.20
44863;DHT22;30597;49.628;10.850;2022-07-29T07:46:57;26.70;40.30
44863;DHT22;30597;49.628;10.850;2022-07-29T07:49:23;26.70;40.30
44863;DHT22;30597;49.628;10.850;2022-07-29T07:51:49;26.70;40.30
44863;DHT22;30597;49.628;10.850;2022-07-29T07:54:15;26.80;40.30
44863;DHT22;30597;49.628;10.850;2022-07-29T07:56:40;26.70;40.30
44863;DHT22;30597;49.628;10.850;2022-07-29T07:59:06;26.70;40.20
44863;DHT22;30597;49.628;10.850;2022-07-29T08:01:31;26.70;40.10
44863;DHT22;30597;49.628;10.850;2022-07-29T08:03:57;26.70;40.20
44863;DHT22;30597;49.628;10.850;2022-07-29T08:06:22;26.70;40.30
44863;DHT22;30597;49.628;10.850;2022-07-29T08:08:50;26.80;40.40
44863;DHT22;30597;49.628;10.850;2022-07-29T08:11:16;26.80;40.30
44863;DHT22;30597;49.628;10.850;2022-07-29T08:13:42;26.70;40.30
44863;DHT22;30597;49.628;10.850;2022-07-29T08:16:08;26.80;40.30
44863;DHT22;30597;49.628;10.850;2022-07-29T08:18:39;26.80;40.40
44863;DHT22;30597;49.628;10.850;2022-07-29T08:21:05;26.70;40.40
44863;DHT22;30597;49.628;10.850;2022-07-29T08:23:31;26.80;40.40
44863;DHT22;30597;49.628;10.850;2022-07-29T08:26:00;26.70;40.40
44863;DHT22;30597;49.628;10.850;2022-07-29T08:28:26;26.70;40.40
44863;DHT22;30597;49.628;10.850;2022-07-29T08:30:52;26.70;40.30
44863;DHT22;30597;49.628;10.850;2022-07-29T08:33:17;26.80;40.30
44863;DHT22;30597;49.628;10.850;2022-07-29T08:35:43;26.80;40.30
44863;DHT22;30597;49.628;10.850;2022-07-29T08:38:08;26.80;40.30
44863;DHT22;30597;49.628;10.850;2022-07-29T08:40:35;26.70;40.30
44863;DHT22;30597;49.628;10.850;2022-07-29T08:43:08;26.80;40.30
44863;DHT22;30597;49.628;10.850;2022-07-29T08:45:44;26.80;40.30
44863;DHT22;30597;49.628;10.850;2022-07-29T08:48:15;26.80;40.40
44863;DHT22;30597;49.628;10.850;2022-07-29T08:50:41;26.80;40.30
44863;DHT22;30597;49.628;10.850;2022-07-29T08:53:11;26.80;40.30
44863;DHT22;30597;49.628;10.850;2022-07-29T08:55:40;26.80;40.40
44863;DHT22;30597;49.628;10.850;2022-07-29T08:58:07;26.70;40.30
44863;DHT22;30597;49.628;10.850;2022-07-29T09:00:40;26.70;40.30
44863;DHT22;30597;49.628;10.850;2022-07-29T09:03:07;26.70;40.30
44863;DHT22;30597;49.628;10.850;2022-07-29T09:05:34;26.70;40.40
44863;DHT22;30597;49.628;10.850;2022-07-29T09:08:00;26.80;40.40
44863;DHT22;30597;49.628;10.850;2022-07-29T09:10:26;26.70;40.30
44863;DHT22;30597;49.628;10.850;2022-07-29T09:12:54;26.70;40.30
44863;DHT22;30597;49.628;10.850;2022-07-29T09:15:20;26.80;40.40
44863;DHT22;30597;49.628;10.850;2022-07-29T09:17:48;26.70;40.40
44863;DHT22;30597;49.628;10.850;2022-07-29T09:20:16;26.70;40.40
44863;DHT22;30597;49.628;10.850;2022-07-29T09:22:42;26.80;40.50
44863;DHT22;30597;49.628;10.850;2022-07-29T09:25:10;26.70;40.40
44863;DHT22;30597;49.628;10.850;2022-07-29T09:27:36;26.70;40.50
44863;DHT22;30597;49.628;10.850;2022-07-29T09:30:06;26.70;40.50
44863;DHT22;30597;49.628;10.850;2022-07-29T09:32:33;26.70;40.50
44863;DHT22;30597;49.628;10.850;2022-07-29T09:35:15;26.70;40.50
44863;DHT22;30597;49.628;10.850;2022-07-29T09:37:42;26.70;40.50
44863;DHT22;30597;49.628;10.850;2022-07-29T09:40:19;26.70;40.50
44863;DHT22;30597;49.628;10.850;2022-07-29T09:42:46;26.70;40.50
44863;DHT22;30597;49.628;10.850;2022-07-29T09:45:12;26.80;40.60
44863;DHT22;30597;49.628;10.850;2022-07-29T09:47:44;26.70;40.50
44863;DHT22;30597;49.628;10.850;2022-07-29T09:50:11;26.70;40.60
44863;DHT22;30597;49.628;10.850;2022-07-29T09:52:48;26.70;40.50
44863;DHT22;30597;49.628;10.850;2022-07-29T09:55:14;26.70;40.60
44863;DHT22;30597;49.628;10.850;2022-07-29T09:57:40;26.70;40.50
44863;DHT22;30597;49.628;10.850;2022-07-29T10:00:07;26.70;40.50
44863;DHT22;30597;49.628;10.850;2022-07-29T10:02:35;26.70;40.60
44863;DHT22;30597;49.628;10.850;2022-07-29T10:05:03;26.70;40.60
44863;DHT22;30597;49.628;10.850;2022-07-29T10:07:55;26.80;40.60
44863;DHT22;30597;49.628;10.850;2022-07-29T10:12:51;26.70;40.50
44863;DHT22;30597;49.628;10.850;2022-07-29T10:15:18;26.70;40.50
44863;DHT22;30597;49.628;10.850;2022-07-29T10:17:44;26.80;40.60
44863;DHT22;30597;49.628;10.850;2022-07-29T10:20:10;26.70;40.50
44863;DHT22;30597;49.628;10.850;2022-07-29T10:22:36;26.70;40.50
44863;DHT22;30597;49.628;10.850;2022-07-29T10:25:02;26.70;41.10
44863;DHT22;30597;49.628;10.850;2022-07-29T10:27:28;26.70;40.50
44863;DHT22;30597;49.628;10.850;2022-07-29T10:29:54;26.70;40.50
44863;DHT22;30597;49.628;10.850;2022-07-29T10:32:31;26.70;40.50
44863;DHT22;30597;49.628;10.850;2022-07-29T10:35:24;26.70;40.60
44863;DHT22;30597;49.628;10.850;2022-07-29T10:40:52;26.70;40.60
44863;DHT22;30597;49.628;10.850;2022-07-29T10:43:43;26.70;40.60
44863;DHT22;30597;49.628;10.850;2022-07-29T10:46:10;26.70;40.60
44863;DHT22;30597;49.628;10.850;2022-07-29T10:49:12;26.70;40.70
44863;DHT22;30597;49.628;10.850;2022-07-29T10:51:54;26.70;40.70
44863;DHT22;30597;49.628;10.850;2022-07-29T10:54:37;26.70;40.70
44863;DHT22;30597;49.628;10.850;2022-07-29T10:57:20;26.70;40.70
44863;DHT22;30597;49.628;10.850;2022-07-29T11:02:49;26.70;40.70
44863;DHT22;30597;49.628;10.850;2022-07-29T11:05:19;26.60;40.70
44863;DHT22;30597;49.628;10.850;2022-07-29T11:08:16;26.70;40.80
44863;DHT22;30597;49.628;10.850;2022-07-29T11:10:43;26.60;40.70
44863;DHT22;30597;49.628;10.850;2022-07-29T11:13:09;26.70;40.80
44863;DHT22;30597;49.628;10.850;2022-07-29T11:15:54;26.60;40.70
44863;DHT22;30597;49.628;10.850;2022-07-29T11:18:21;26.70;40.80
44863;DHT22;30597;49.628;10.850;2022-07-29T11:20:48;26.70;40.70
44863;DHT22;30597;49.628;10.850;2022-07-29T11:23:28;26.70;40.80
44863;DHT22;30597;49.628;10.850;2022-07-29T11:26:17;26.60;40.80
44863;DHT22;30597;49.628;10.850;2022-07-29T11:29:01;26.70;40.80
44863;DHT22;30597;49.628;10.850;2022-07-29T11:34:32;26.70;40.80
44863;DHT22;30597;49.628;10.850;2022-07-29T11:39:37;26.70;40.80
44863;DHT22;30597;49.628;10.850;2022-07-29T11:47:27;26.70;40.80
44863;DHT22;30597;49.628;10.850;2022-07-29T11:49:55;26.70;40.80
44863;DHT22;30597;49.628;10.850;2022-07-29T11:52:21;26.70;40.80
44863;DHT22;30597;49.628;10.850;2022-07-29T11:54:48;26.70;40.70
44863;DHT22;30597;49.628;10.850;2022-07-29T11:57:18;26.70;40.70
44863;DHT22;30597;49.628;10.850;2022-07-29T11:59:46;26.70;40.70
44863;DHT22;30597;49.628;10.850;2022-07-29T12:02:12;26.70;40.80
44863;DHT22;30597;49.628;10.850;2022-07-29T12:04:51;26.70;40.70
44863;DHT22;30597;49.628;10.850;2022-07-29T12:07:18;26.70;40.80
44863;DHT22;30597;49.628;10.850;2022-07-29T12:09:51;26.70;40.80
44863;DHT22;30597;49.628;10.850;2022-07-29T12:12:17;26.70;40.80
44863;DHT22;30597;49.628;10.850;2022-07-29T12:14:43;26.80;41.40
44863;DHT22;30597;49.628;10.850;2022-07-29T12:17:33;26.70;40.70
44863;DHT22;30597;49.628;10.850;2022-07-29T12:20:02;26.70;40.80
44863;DHT22;30597;49.628;10.850;2022-07-29T12:22:33;26.80;40.90
44863;DHT22;30597;49.628;10.850;2022-07-29T12:25:10;26.70;40.80
44863;DHT22;30597;49.628;10.850;2022-07-29T12:27:37;26.70;40.80
44863;DHT22;30597;49.628;10.850;2022-07-29T12:30:15;26.70;40.70
44863;DHT22;30597;49.628;10.850;2022-07-29T12:32:44;26.70;40.80
44863;DHT22;30597;49.628;10.850;2022-07-29T12:35:18;26.70;40.80
44863;DHT22;30597;49.628;10.850;2022-07-29T12:37:46;26.70;40.80
44863;DHT22;30597;49.628;10.850;2022-07-29T12:40:15;26.70;40.80
44863;DHT22;30597;49.628;10.850;2022-07-29T12:43:05;26.70;40.90
44863;DHT22;30597;49.628;10.850;2022-07-29T12:45:32;26.70;40.90
44863;DHT22;30597;49.628;10.850;2022-07-29T12:47:58;26.70;40.80
44863;DHT22;30597;49.628;10.850;2022-07-29T12:50:24;26.70;40.70
44863;DHT22;30597;49.628;10.850;2022-07-29T12:52:50;26.70;40.70
44863;DHT22;30597;49.628;10.850;2022-07-29T12:55:16;26.80;40.80
44863;DHT22;30597;49.628;10.850;2022-07-29T12:58:01;26.80;40.90
44863;DHT22;30597;49.628;10.850;2022-07-29T13:00:27;26.80;40.90
44863;DHT22;30597;49.628;10.850;2022-07-29T13:02:57;26.70;40.80
44863;DHT22;30597;49.628;10.850;2022-07-29T13:05:24;26.70;41.50
44863;DHT22;30597;49.628;10.850;2022-07-29T13:07:50;26.70;40.80
44863;DHT22;30597;49.628;10.850;2022-07-29T13:10:20;26.70;40.80
44863;DHT22;30597;49.628;10.850;2022-07-29T13:13:06;26.80;40.90
44863;DHT22;30597;49.628;10.850;2022-07-29T13:15:33;26.70;40.80
44863;DHT22;30597;49.628;10.850;2022-07-29T13:17:59;26.70;40.80
44863;DHT22;30597;49.628;10.850;2022-07-29T13:20:27;26.80;40.90
44863;DHT22;30597;49.628;10.850;2022-07-29T13:22:56;26.80;40.90
44863;DHT22;30597;49.628;10.850;2022-07-29T13:25:31;26.80;40.90
44863;DHT22;30597;49.628;10.850;2022-07-29T13:27:58;26.80;40.90
44863;DHT22;30597;49.628;10.850;2022-07-29T13:30:24;26.80;40.90
44863;DHT22;30597;49.628;10.850;2022-07-29T13:32:51;26.80;40.90
44863;DHT22;30597;49.628;10.850;2022-07-29T13:35:18;26.80;40.90
44863;DHT22;30597;49.628;10.850;2022-07-29T13:37:44;26.80;40.90
44863;DHT22;30597;49.628;10.850;2022-07-29T13:40:10;26.80;40.90
44863;DHT22;30597;49.628;10.850;2022-07-29T13:42:36;26.70;41.10
44863;DHT22;30597;49.628;10.850;2022-07-29T13:45:02;26.80;40.90
44863;DHT22;30597;49.628;10.850;2022-07-29T13:47:28;26.70;40.90
44863;DHT22;30597;49.628;10.850;2022-07-29T13:49:54;26.70;40.90
44863;DHT22;30597;49.628;10.850;2022-07-29T13:52:20;26.80;40.90
44863;DHT22;30597;49.628;10.850;2022-07-29T13:54:46;26.80;41.00
44863;DHT22;30597;49.628;10.850;2022-07-29T13:57:13;26.70;40.90
44863;DHT22;30597;49.628;10.850;2022-07-29T13:59:39;26.70;40.90
44863;DHT22;30597;49.628;10.850;2022-07-29T14:02:06;26.80;41.00
44863;DHT22;30597;49.628;10.850;2022-07-29T14:04:32;26.70;40.90
44863;DHT22;30597;49.628;10.850;2022-07-29T14:06:58;26.70;40.90
44863;DHT22;30597;49.628;10.850;2022-07-29T14:09:24;26.70;40.90
44863;DHT22;30597;49.628;10.850;2022-07-29T14:11:49;26.70;40.90
44863;DHT22;30597;49.628;10.850;2022-07-29T14:14:16;26.70;40.90
44863;DHT22;30597;49.628;10.850;2022-07-29T14:16:42;26.70;40.90
44863;DHT22;30597;49.628;10.850;2022-07-29T14:19:07;26.70;40.90
44863;DHT22;30597;49.628;10.850;2022-07-29T14:21:33;26.70;40.90
44863;DHT22;30597;49.628;10.850;2022-07-29T14:24:00;26.70;40.90
44863;DHT22;30597;49.628;10.850;2022-07-29T14:26:26;26.70;40.90
44863;DHT22;30597;49.628;10.850;2022-07-29T14:28:51;26.70;41.00
44863;DHT22;30597;49.628;10.850;2022-07-29T14:31:17;26.70;41.00
44863;DHT22;30597;49.628;10.850;2022-07-29T14:33:42;26.70;40.90
44863;DHT22;30597;49.628;10.850;2022-07-29T14:36:08;26.80;41.00
44863;DHT22;30597;49.628;10.850;2022-07-29T14:38:35;26.80;41.10
44863;DHT22;30597;49.628;10.850;2022-07-29T14:41:00;26.80;41.10
44863;DHT22;30597;49.628;10.850;2022-07-29T14:43:26;26.70;41.00
44863;DHT22;30597;49.628;10.850;2022-07-29T14:45:51;26.80;41.00
44863;DHT22;30597;49.628;10.850;2022-07-29T14:48:17;26.70;41.00
44863;DHT22;30597;49.628;10.850;2022-07-29T14:50:42;26.70;41.00
44863;DHT22;30597;49.628;10.850;2022-07-29T14:53:08;26.80;41.10
44863;DHT22;30597;49.628;10.850;2022-07-29T14:55:33;26.80;41.10
44863;DHT22;30597;49.628;10.850;2022-07-29T14:57:59;26.80;41.10
44863;DHT22;30597;49.628;10.850;2022-07-29T15:00:25;26.80;41.10
44863;DHT22;30597;49.628;10.850;2022-07-29T15:02:51;26.80;41.20
44863;DHT22;30597;49.628;10.850;2022-07-29T15:05:16;26.80;41.30
44863;DHT22;30597;49.628;10.850;2022-07-29T15:07:42;26.80;41.40
44863;DHT22;30597;49.628;10.850;2022-07-29T15:10:08;26.80;41.40
44863;DHT22;30597;49.628;10.850;2022-07-29T15:12:34;26.80;41.40
44863;DHT22;30597;49.628;10.850;2022-07-29T15:15:00;26.80;41.40
44863;DHT22;30597;49.628;10.850;2022-07-29T15:17:26;26.80;41.40
44863;DHT22;30597;49.628;10.850;2022-07-29T15:19:51;26.80;41.30
44863;DHT22;30597;49.628;10.850;2022-07-29T15:22:17;26.90;41.40
44863;DHT22;30597;49.628;10.850;2022-07-29T15:24:42;26.90;41.20
44863;DHT22;30597;49.628;10.850;2022-07-29T15:27:09;26.90;41.20
44863;DHT22;30597;49.628;10.850;2022-07-29T15:29:42;27.00;41.20
44863;DHT22;30597;49.628;10.850;2022-07-29T15:32:08;26.90;41.20
44863;DHT22;30597;49.628;10.850;2022-07-29T15:34:35;26.90;41.30
44863;DHT22;30597;49.628;10.850;2022-07-29T15:37:00;26.90;41.20
44863;DHT22;30597;49.628;10.850;2022-07-29T15:39:26;26.90;41.30
44863;DHT22;30597;49.628;10.850;2022-07-29T15:41:52;26.90;41.30
44863;DHT22;30597;49.628;10.850;2022-07-29T15:44:18;26.90;41.30
44863;DHT22;30597;49.628;10.850;2022-07-29T15:46:43;26.90;41.40
44863;DHT22;30597;49.628;10.850;2022-07-29T15:49:32;26.90;41.40
44863;DHT22;30597;49.628;10.850;2022-07-29T15:52:03;26.90;41.60